New Hartford, IA (50660)

10:22 PM CST on February 11, 2016 (GMT -0600)
Skyhawkdoc--Parkersburg IA | | Change Station
CLOSE
Current Station
Personal Weather Station
Location: Parkersburg, IA
Elevation: 994 ft
Nearby Weather Stations

Elev 994 ft 42.58 °N, 92.78 °W | Updated 10 minutes ago

Mostly Cloudy
Mostly Cloudy
8.1 °F
Feels Like 8 °F
N
0.0
Wind Variable Wind from SSE

Today
High -- | Low -- °F
--% Chance of Precip.
Yesterday
High -- | Low -- °F
Precip. -- in
Pressure 30.31 in
Visibility 10.0 miles
Clouds Clear
Windchill 8 °F
Dew Point 6 °F
Humidity 90%
Rainfall 0.00 in
Snow Depth Not available.
7:13 AM 5:36 PM
Waxing Crescent, 17% visible
METAR KALO 120354Z AUTO 05003KT 10SM CLR M13/M15 A3025 RMK AO2 SLP264 T11281150
Pressure 30.31 in
Visibility 10.0 miles
Clouds Clear
Windchill 8 °F
Dew Point 6 °F
Humidity 90%
Rainfall 0.00 in
Snow Depth Not available.
7:13 AM 5:36 PM
Waxing Crescent, 17% visible
METAR KALO 120354Z AUTO 05003KT 10SM CLR M13/M15 A3025 RMK AO2 SLP264 T11281150

10-Day Weather Forecast

Almanac

Astronomy

Feb. 11, 2016 Rise Set
Actual Time
Civil Twilight
Nautical Twilight
Astronomical Twilight
Moon
Length of Visible Light
Length of Day
Tomorrow will be .
, % of the Moon is Illuminated

Today's Extremes

State Highs State Lows

Community

WunderPhotos

Upload Photos

1,892,266 photos uploaded!

WunderBlog® & News

Nearby

Air Quality

  Air Quality AQ Index Pollutant
Not available.

Snow Depth

Station Depth Elevation

Earthquake Activity

City Distance Mag. Time & Date
Minimum magnitude displayed is 2.5.

Coastal Water Temperatures

Place Temperature

Stations

Nearby Weather Stations

Station Location Temp. Windchill Dew Point Humidity Wind Precip. Elev Updated Type
                   

Watches & Warnings

There are currently no watches in effect.